»·PEaware :: N799DS KBUR-KOXR

N799DS :: KBUR-KOXR

FLIGHT INFORMATION

Flight Status: Arrived
Operator: Privately registered:
United States
More flights under this callsign
Pilot: Wolfgang B. (15069)
Aircraft: CESSNA 172 SKYHAWK
(C172)
More flights by this aircraft type
Origin: KBUR Bob Hope-Burbank
United States
Destination: KOXR Oxnard
United States
More flights between these airports :: More routes between these airports
Route: +VNY3 FIM
File this flight plan on PilotEdge
Remarks:
Altitude:
(Current/Filed)
6,000ft
Speed:
(Current/Filed)
120kts
Departed: 22-Oct-20 01:26 PM
Arrived: 22-Oct-20 01:59 PM
Distance/Time
Traveled:
42nm/0:33
Distance/Time
To Go:
Arrived

Flight Plot

Page will automatically refresh every two minutes.


Map Options




Map Legend


Flown Route
Filed Route
Departure Airport
Arrival Airport
Navaid (VOR, NDB)
Fix

Horizontal Profiles

Position Reports

Time Latitude Longitude Heading Altitude Ground
Speed
22-Oct-20 13:06 34.200258 -118.362797 220 726ft 0kts
22-Oct-20 13:07 34.200258 -118.362797 220 726ft 0kts
22-Oct-20 13:08 34.200258 -118.362797 220 726ft 0kts
22-Oct-20 13:09 34.200258 -118.362797 220 726ft 0kts
22-Oct-20 13:10 34.200258 -118.362797 220 726ft 0kts
22-Oct-20 13:11 34.200258 -118.362797 220 726ft 0kts
22-Oct-20 13:12 34.200258 -118.362797 220 726ft 0kts
22-Oct-20 13:13 34.200258 -118.362797 220 726ft 0kts
22-Oct-20 13:14 34.200258 -118.362797 220 726ft 0kts
22-Oct-20 13:15 34.200258 -118.362797 220 726ft 0kts
22-Oct-20 13:16 34.200258 -118.362797 220 726ft 0kts
22-Oct-20 13:17 34.200257 -118.362798 219 726ft 0kts
22-Oct-20 13:18 34.200034 -118.362910 184 726ft 7kts
22-Oct-20 13:19 34.199098 -118.366243 271 726ft 17kts
22-Oct-20 13:20 34.198784 -118.368996 177 727ft 0kts
22-Oct-20 13:21 34.198785 -118.368996 178 727ft 0kts
22-Oct-20 13:22 34.198785 -118.368996 178 727ft 0kts
22-Oct-20 13:23 34.198785 -118.368996 178 727ft 0kts
22-Oct-20 13:24 34.197911 -118.368428 114 725ft 16kts
22-Oct-20 13:25 34.197552 -118.350797 103 1135ft 68kts
22-Oct-20 13:26 34.183295 -118.358513 224 1861ft 73kts
22-Oct-20 13:27 34.169240 -118.376832 224 2568ft 75kts
22-Oct-20 13:28 34.155057 -118.395352 224 3246ft 75kts
22-Oct-20 13:29 34.140821 -118.413972 224 3889ft 75kts
22-Oct-20 13:30 34.122741 -118.441460 261 3980ft 123kts
22-Oct-20 13:31 34.123976 -118.474071 270 4850ft 80kts
22-Oct-20 13:32 34.125659 -118.500988 270 5406ft 80kts
22-Oct-20 13:33 34.127406 -118.528096 270 5931ft 81kts
22-Oct-20 13:34 34.129338 -118.563238 271 5974ft 120kts
22-Oct-20 13:35 34.129025 -118.605915 271 5971ft 122kts
22-Oct-20 13:36 34.128276 -118.649087 271 5969ft 121kts
22-Oct-20 13:37 34.127676 -118.690359 270 5968ft 121kts
22-Oct-20 13:38 34.127208 -118.731238 270 5966ft 121kts
22-Oct-20 13:39 34.126874 -118.772659 270 5965ft 121kts
22-Oct-20 13:40 34.126682 -118.813937 270 5964ft 120kts
22-Oct-20 13:41 34.126399 -118.854388 270 5965ft 120kts
22-Oct-20 13:42 34.125915 -118.894988 270 5966ft 120kts
22-Oct-20 13:43 34.131513 -118.935052 332 5729ft 130kts
22-Oct-20 13:45 34.156108 -118.907221 61 5189ft 129kts
22-Oct-20 13:46 34.172222 -118.867629 61 4834ft 122kts
22-Oct-20 13:47 34.188129 -118.829411 54 4275ft 120kts
22-Oct-20 13:48 34.205254 -118.846883 262 4265ft 118kts
22-Oct-20 13:49 34.199472 -118.889314 262 4264ft 120kts
22-Oct-20 13:50 34.196667 -118.931291 277 4265ft 119kts
22-Oct-20 13:51 34.198653 -118.972793 273 3765ft 106kts
22-Oct-20 13:52 34.199191 -119.010639 272 3160ft 108kts
22-Oct-20 13:53 34.199542 -119.047831 272 2549ft 106kts
22-Oct-20 13:54 34.199846 -119.083367 272 1964ft 105kts
22-Oct-20 13:55 34.200138 -119.118914 272 1383ft 105kts
22-Oct-20 13:56 34.200416 -119.154180 271 811ft 104kts
22-Oct-20 13:57 34.200594 -119.182859 272 383ft 72kts
22-Oct-20 13:58 34.200805 -119.204657 269 40ft 41kts
22-Oct-20 13:59 34.200055 -119.207121 167 37ft 0kts
22-Oct-20 14:00 34.199780 -119.203795 91 40ft 22kts
22-Oct-20 14:00 34.198719 -119.198429 117 43ft 11kts

Navigation Log

Ident Type
Flight plan parsing failed, navigation log unavailable